Elwood, IN

6:13 AM EST on February 22, 2017 (GMT -0500)
Norwood Addition | | Change Station
Active Advisory: Special Statement

Elev 20 ft 40.27 °N, 85.83 °W | Updated 28 seconds ago

Overcast
Overcast
53.8 °F
Feels Like 53.8 °F
N
1.1
Wind Variable Wind from ENE

Today
High -- | Low -- °F
--% Chance of Precip.
Yesterday
High -- | Low -- °F
Precip. -- in
Pressure 29.91 in
Visibility 2.0 miles
Clouds Overcast 600 ft
Dew Point 54 °F
Humidity 99%
Rainfall 0.00 in
Snow Depth Not available.
7:26 AM 6:27 PM
Waning Crescent, 18% visible
METAR KMZZ 221055Z AUTO 21003KT 2SM BR OVC006 11/11 A2991 RMK AO2 T01060106
Pressure 29.91 in
Visibility 2.0 miles
Clouds Overcast 600 ft
Dew Point 54 °F
Humidity 99%
Rainfall 0.00 in
Snow Depth Not available.
7:26 AM 6:27 PM
Waning Crescent, 18% visible
METAR KMZZ 221055Z AUTO 21003KT 2SM BR OVC006 11/11 A2991 RMK AO2 T01060106

Get Your Daily Forecast Email!

Thanks for signing up!

Be on the lookout for a verification email in your inbox.

You'll start receiving the daily forecast at 8 AM.

×

10-Day Weather Forecast

Almanac

Astronomy

Feb. 22, 2017 Rise Set
Actual Time
Civil Twilight
Nautical Twilight
Astronomical Twilight
Moon
Length of Visible Light
Length of Day
Tomorrow will be .
, % of the Moon is Illuminated

Today's Extremes

State Highs State Lows

Community

WunderPhotos

Upload Photos

1,962,540 photos uploaded!

WunderBlog® & News

Nearby

Air Quality

  Air Quality AQ Index Pollutant
Not available.

Snow Depth

Station Depth Elevation

Earthquake Activity

City Distance Mag. Time & Date
Minimum magnitude displayed is 2.5.

Coastal Water Temperatures

Place Temperature

Stations

Nearby Weather Stations

Station Location Temp. Windchill Dew Point Humidity Wind Precip. Elev Updated Type
                   

Watches & Warnings

Special Statement
Issued: 5:17 AM EST Feb. 22, 2017 – National Weather Service

... Locally dense fog this morning...

Patchy dense fog will continue to develop across the area this
morning. Visibility will drop to around a quarter of a mile at
some locations. Fog will lift by mid morning.

If traveling, use caution and be alert for rapidly changing
visibilities.


50